createdAt,value
2018-04-07T00:01:03.645Z,7.88
2018-04-07T00:03:31.184Z,7.85
2018-04-07T00:05:58.735Z,7.66
2018-04-07T00:08:26.269Z,7.76
2018-04-07T00:10:53.827Z,7.83
2018-04-07T00:13:21.359Z,7.60
2018-04-07T00:15:48.934Z,7.61
2018-04-07T00:18:16.480Z,7.68
2018-04-07T00:20:44.045Z,7.52
2018-04-07T00:23:11.605Z,7.56
2018-04-07T00:25:39.204Z,7.59
2018-04-07T00:28:06.745Z,7.51
2018-04-07T00:30:34.281Z,7.28
2018-04-07T00:33:01.857Z,7.34
2018-04-07T00:35:29.391Z,7.30
2018-04-07T00:37:57.006Z,7.35
2018-04-07T00:40:24.573Z,7.45
2018-04-07T00:42:52.119Z,7.30
2018-04-07T00:45:19.689Z,7.27
2018-04-07T00:47:47.261Z,7.26
2018-04-07T00:50:14.820Z,7.34
2018-04-07T00:52:54.278Z,7.20
2018-04-07T00:55:21.836Z,7.26
2018-04-07T00:57:49.384Z,7.26
2018-04-07T01:00:16.948Z,7.12
2018-04-07T01:02:44.544Z,7.24
2018-04-07T01:05:12.082Z,7.21
2018-04-07T01:07:39.610Z,7.18
2018-04-07T01:10:07.185Z,7.22
2018-04-07T01:12:34.749Z,7.16
2018-04-07T01:15:02.671Z,7.15
2018-04-07T01:17:30.199Z,7.15
2018-04-07T01:19:57.718Z,7.13
2018-04-07T01:22:25.281Z,7.19
2018-04-07T01:24:52.825Z,6.93
2018-04-07T01:27:20.572Z,6.93
2018-04-07T01:29:48.122Z,6.87
2018-04-07T01:32:15.664Z,6.79
2018-04-07T01:34:43.226Z,6.79
2018-04-07T01:37:10.755Z,6.86
2018-04-07T01:39:38.345Z,6.79
2018-04-07T01:42:05.912Z,6.88
2018-04-07T01:44:33.446Z,6.80
2018-04-07T01:47:00.995Z,6.80
2018-04-07T01:49:28.561Z,6.84
2018-04-07T01:51:56.136Z,6.79
2018-04-07T01:54:23.667Z,6.89
2018-04-07T01:56:51.233Z,6.87
2018-04-07T01:59:18.767Z,6.87
2018-04-07T02:01:46.357Z,6.74
2018-04-07T02:04:13.893Z,6.75
2018-04-07T02:06:41.453Z,6.79
2018-04-07T02:09:09.336Z,6.64
2018-04-07T02:11:36.876Z,6.59
2018-04-07T02:14:04.419Z,6.69
2018-04-07T02:16:32.012Z,6.58
2018-04-07T02:18:59.553Z,6.58
2018-04-07T02:21:27.079Z,6.59
2018-04-07T02:23:54.640Z,6.65
2018-04-07T02:26:22.162Z,6.63
2018-04-07T02:28:49.748Z,6.71
2018-04-07T02:31:17.297Z,6.56
2018-04-07T02:33:44.860Z,6.52
2018-04-07T02:36:12.470Z,6.47
2018-04-07T02:38:39.999Z,6.50
2018-04-07T02:41:07.545Z,6.62
2018-04-07T02:43:35.150Z,6.47
2018-04-07T02:46:02.683Z,6.42
2018-04-07T02:48:30.212Z,6.31
2018-04-07T02:50:57.803Z,6.50
2018-04-07T02:53:25.352Z,6.38
2018-04-07T02:55:52.884Z,6.32
2018-04-07T02:58:20.442Z,6.29
2018-04-07T03:00:47.999Z,6.20
2018-04-07T03:03:15.596Z,6.38
2018-04-07T03:05:43.146Z,6.39
2018-04-07T03:08:10.693Z,6.23
2018-04-07T03:10:38.242Z,6.18
2018-04-07T03:13:05.786Z,6.09
2018-04-07T03:15:33.353Z,6.31
2018-04-07T03:18:00.943Z,6.26
2018-04-07T03:20:28.466Z,6.22
2018-04-07T03:22:55.996Z,6.25
2018-04-07T03:25:23.550Z,6.34
2018-04-07T03:27:51.084Z,6.28
2018-04-07T03:30:18.663Z,6.36
2018-04-07T03:32:46.209Z,6.31
2018-04-07T03:35:13.734Z,6.22
2018-04-07T03:37:41.324Z,6.11
2018-04-07T03:40:08.873Z,6.08
2018-04-07T03:42:36.406Z,6.13
2018-04-07T03:45:03.976Z,6.22
2018-04-07T03:47:31.573Z,6.16
2018-04-07T03:49:59.165Z,6.14
2018-04-07T03:52:26.704Z,6.11
2018-04-07T03:54:54.587Z,5.98
2018-04-07T03:57:22.159Z,5.97
2018-04-07T03:59:49.682Z,6.05
2018-04-07T04:02:17.225Z,5.94
2018-04-07T04:04:44.800Z,5.87
2018-04-07T04:07:12.336Z,5.82
2018-04-07T04:09:39.886Z,5.95
2018-04-07T04:12:08.461Z,6.02
2018-04-07T04:14:35.997Z,5.80
2018-04-07T04:17:03.571Z,5.82
2018-04-07T04:19:31.160Z,5.78
2018-04-07T04:21:58.705Z,5.63
2018-04-07T04:24:26.240Z,5.67
2018-04-07T04:26:54.037Z,5.78
2018-04-07T04:29:21.591Z,5.90
2018-04-07T04:31:49.128Z,5.88
2018-04-07T04:34:16.728Z,5.87
2018-04-07T04:36:44.269Z,5.67
2018-04-07T04:39:11.810Z,5.70
2018-04-07T04:41:39.396Z,5.72
2018-04-07T04:44:06.931Z,5.57
2018-04-07T04:46:34.483Z,5.75
2018-04-07T04:49:02.017Z,5.80
2018-04-07T04:51:29.594Z,5.76
2018-04-07T04:53:57.151Z,5.54
2018-04-07T04:56:24.691Z,5.62
2018-04-07T04:58:52.276Z,5.51
2018-04-07T05:01:19.814Z,5.71
2018-04-07T05:03:47.358Z,5.53
2018-04-07T05:06:14.940Z,5.37
2018-04-07T05:08:42.467Z,5.56
2018-04-07T05:11:09.999Z,5.67
2018-04-07T05:13:37.565Z,5.66
2018-04-07T05:16:05.121Z,5.71
2018-04-07T05:18:33.061Z,5.96
2018-04-07T05:21:00.592Z,5.85
2018-04-07T05:23:28.143Z,5.96
2018-04-07T05:25:55.718Z,6.07
2018-04-07T05:28:23.665Z,6.11
2018-04-07T05:30:51.204Z,6.23
2018-04-07T05:33:18.757Z,6.26
2018-04-07T05:35:46.311Z,6.12
2018-04-07T05:38:13.868Z,6.27
2018-04-07T05:40:41.831Z,6.29
2018-04-07T05:43:09.380Z,6.42
2018-04-07T05:45:36.918Z,6.33
2018-04-07T05:48:04.513Z,6.56
2018-04-07T05:50:32.173Z,6.68
2018-04-07T05:52:59.727Z,6.50
2018-04-07T05:55:27.695Z,6.61
2018-04-07T05:57:55.246Z,6.96
2018-04-07T06:00:22.799Z,6.85
2018-04-07T06:02:50.369Z,6.98
2018-04-07T06:05:17.900Z,7.17
2018-04-07T06:07:45.459Z,7.70
2018-04-07T06:10:12.996Z,7.53
2018-04-07T06:12:40.886Z,7.39
2018-04-07T06:15:08.423Z,7.33
2018-04-07T06:17:35.965Z,7.93
2018-04-07T06:20:03.587Z,8.04
2018-04-07T06:22:31.118Z,7.97
2018-04-07T06:24:58.660Z,8.28
2018-04-07T06:27:26.649Z,8.00
2018-04-07T06:29:54.219Z,8.45
2018-04-07T06:32:21.767Z,8.77
2018-04-07T06:34:49.349Z,8.40
2018-04-07T06:37:16.888Z,8.45
2018-04-07T06:39:44.462Z,8.21
2018-04-07T06:42:12.007Z,8.37
2018-04-07T06:44:39.560Z,8.34
2018-04-07T06:47:07.104Z,8.77
2018-04-07T06:49:34.684Z,8.75
2018-04-07T06:52:02.258Z,9.02
2018-04-07T06:54:29.792Z,8.77
2018-04-07T06:56:57.365Z,8.71
2018-04-07T06:59:24.916Z,8.97
2018-04-07T07:01:52.511Z,8.99
2018-04-07T07:04:20.115Z,9.35
2018-04-07T07:06:47.665Z,9.24
2018-04-07T07:09:15.219Z,9.42
2018-04-07T07:11:42.772Z,9.67
2018-04-07T07:14:10.365Z,9.65
2018-04-07T07:16:37.926Z,9.56
2018-04-07T07:19:05.583Z,9.75
2018-04-07T07:21:33.326Z,10.04
2018-04-07T07:24:00.877Z,9.96
2018-04-07T07:26:28.581Z,10.35
2018-04-07T07:28:56.135Z,10.23
2018-04-07T07:31:23.690Z,10.13
2018-04-07T07:33:51.270Z,10.29
2018-04-07T07:36:18.944Z,10.39
2018-04-07T07:38:46.588Z,10.47
2018-04-07T07:41:14.192Z,10.61
2018-04-07T07:43:41.796Z,10.61
2018-04-07T07:46:09.470Z,11.07
2018-04-07T07:48:37.044Z,11.15
2018-04-07T07:51:04.593Z,11.12
2018-04-07T07:53:32.202Z,10.95
2018-04-07T07:55:59.763Z,11.25
2018-04-07T07:58:27.315Z,11.23
2018-04-07T08:00:54.895Z,11.58
2018-04-07T08:03:22.510Z,11.67
2018-04-07T08:05:50.089Z,11.84
2018-04-07T08:08:17.637Z,11.93
2018-04-07T08:10:45.220Z,11.89
2018-04-07T08:13:12.788Z,11.96
2018-04-07T08:15:40.384Z,12.09
2018-04-07T08:18:07.921Z,12.40
2018-04-07T08:20:35.495Z,12.47
2018-04-07T08:23:03.082Z,12.95
2018-04-07T08:25:30.680Z,12.63
2018-04-07T08:27:58.260Z,12.59
2018-04-07T08:30:25.808Z,12.94
2018-04-07T08:32:53.371Z,12.95
2018-04-07T08:35:20.912Z,13.10
2018-04-07T08:37:48.508Z,13.04
2018-04-07T08:40:16.047Z,13.23
2018-04-07T08:42:43.579Z,13.52
2018-04-07T08:45:12.482Z,13.44
2018-04-07T08:47:40.234Z,13.28
2018-04-07T08:50:07.830Z,13.64
2018-04-07T08:52:35.373Z,13.75
2018-04-07T08:55:02.936Z,13.78
2018-04-07T08:57:30.544Z,14.02
2018-04-07T08:59:58.093Z,14.24
2018-04-07T09:02:25.636Z,14.45
2018-04-07T09:04:53.213Z,14.23
2018-04-07T09:07:20.808Z,14.47
2018-04-07T09:09:48.357Z,14.54
2018-04-07T09:12:15.904Z,14.52
2018-04-07T09:14:43.525Z,14.48
2018-04-07T09:17:11.068Z,14.32
2018-04-07T09:19:38.634Z,14.44
2018-04-07T09:22:06.252Z,14.82
2018-04-07T09:24:33.800Z,14.60
2018-04-07T09:27:01.339Z,14.95
2018-04-07T09:29:28.898Z,15.09
2018-04-07T09:31:56.509Z,15.32
2018-04-07T09:34:24.064Z,15.40
2018-04-07T09:36:51.613Z,15.33
2018-04-07T09:39:19.202Z,15.46
2018-04-07T09:41:46.748Z,15.50
2018-04-07T09:44:14.295Z,15.85
2018-04-07T09:46:42.204Z,16.12
2018-04-07T09:49:09.798Z,15.67
2018-04-07T09:54:11.182Z,16.15
2018-04-07T09:56:38.719Z,15.83
2018-04-07T09:59:06.422Z,15.99
2018-04-07T10:01:36.575Z,16.45
2018-04-07T10:04:04.156Z,16.78
2018-04-07T10:06:31.696Z,16.64
2018-04-07T10:08:59.284Z,16.71
2018-04-07T10:11:26.832Z,16.57
2018-04-07T10:13:54.376Z,16.85
2018-04-07T10:16:21.975Z,16.91
2018-04-07T10:18:49.536Z,16.92
2018-04-07T10:21:17.084Z,17.30
2018-04-07T10:23:44.647Z,17.38
2018-04-07T10:26:12.207Z,17.34
2018-04-07T10:28:39.790Z,17.52
2018-04-07T10:31:07.465Z,17.79
2018-04-07T10:33:35.024Z,17.59
2018-04-07T10:36:02.569Z,17.73
2018-04-07T10:38:30.174Z,18.03
2018-04-07T10:40:57.721Z,17.76
2018-04-07T10:43:25.262Z,17.84
2018-04-07T10:45:52.866Z,17.89
2018-04-07T10:48:20.512Z,17.93
2018-04-07T10:50:48.061Z,17.82
2018-04-07T10:53:15.668Z,17.90
2018-04-07T10:55:43.235Z,18.09
2018-04-07T10:58:10.783Z,18.11
2018-04-07T11:00:38.372Z,18.28
2018-04-07T11:03:05.936Z,18.00
2018-04-07T11:05:33.487Z,18.53
2018-04-07T11:08:01.051Z,18.49
2018-04-07T11:10:28.617Z,18.54
2018-04-07T11:12:56.231Z,18.46
2018-04-07T11:15:23.794Z,18.87
2018-04-07T11:17:51.756Z,19.16
2018-04-07T11:20:19.332Z,18.91
2018-04-07T11:22:46.883Z,18.94
2018-04-07T11:25:14.884Z,18.79
2018-04-07T11:27:42.432Z,18.85
2018-04-07T11:30:10.000Z,19.01
2018-04-07T11:32:37.568Z,18.95
2018-04-07T11:35:05.126Z,19.14
2018-04-07T11:37:32.714Z,19.30
2018-04-07T11:40:00.259Z,18.74
2018-04-07T11:42:27.826Z,18.82
2018-04-07T11:44:55.792Z,18.93
2018-04-07T11:47:23.371Z,19.03
2018-04-07T11:49:51.023Z,19.06
2018-04-07T11:52:18.628Z,19.43
2018-04-07T11:54:46.235Z,19.74
2018-04-07T11:57:13.817Z,19.12
2018-04-07T11:59:41.394Z,19.60
2018-04-07T12:02:08.961Z,19.67
2018-04-07T12:04:36.537Z,19.64
2018-04-07T12:07:04.084Z,19.43
2018-04-07T12:09:32.825Z,19.90
2018-04-07T12:12:00.416Z,19.91
2018-04-07T12:14:27.960Z,19.53
2018-04-07T12:16:56.152Z,20.01
2018-04-07T12:19:23.733Z,19.78
2018-04-07T12:21:51.279Z,19.76
2018-04-07T12:24:19.191Z,19.62
2018-04-07T12:26:46.786Z,19.90
2018-04-07T12:29:14.382Z,19.88
2018-04-07T12:31:41.924Z,20.46
2018-04-07T12:34:09.677Z,20.35
2018-04-07T12:36:37.354Z,20.51
2018-04-07T12:39:04.937Z,19.81
2018-04-07T12:41:32.512Z,19.99
2018-04-07T12:44:00.073Z,20.11
2018-04-07T12:46:28.044Z,20.33
2018-04-07T12:48:55.632Z,20.65
2018-04-07T12:51:23.174Z,20.48
2018-04-07T12:53:50.772Z,20.77
2018-04-07T12:56:18.329Z,20.35
2018-04-07T12:58:45.934Z,20.39
2018-04-07T13:01:13.534Z,20.90
2018-04-07T13:03:41.095Z,21.12
2018-04-07T13:06:08.673Z,20.47
2018-04-07T13:08:36.252Z,20.55
2018-04-07T13:11:03.890Z,21.09
2018-04-07T13:13:31.441Z,20.67
2018-04-07T13:15:58.997Z,20.93
2018-04-07T13:18:26.602Z,20.68
2018-04-07T13:20:54.156Z,21.04
2018-04-07T13:23:21.700Z,21.16
2018-04-07T13:25:49.268Z,21.30
2018-04-07T13:28:16.902Z,21.21
2018-04-07T13:30:44.815Z,21.89
2018-04-07T13:33:12.376Z,21.14
2018-04-07T13:35:39.915Z,21.61
2018-04-07T13:38:07.517Z,21.82
2018-04-07T13:40:35.069Z,21.38
2018-04-07T13:43:02.608Z,21.56
2018-04-07T13:45:30.198Z,21.56
2018-04-07T13:47:57.744Z,21.57
2018-04-07T13:50:25.302Z,21.82
2018-04-07T13:52:52.879Z,21.86
2018-04-07T13:55:20.452Z,22.09
2018-04-07T13:57:48.015Z,21.87
2018-04-07T14:00:15.727Z,21.88
2018-04-07T14:02:43.272Z,21.78
2018-04-07T14:05:10.821Z,22.37
2018-04-07T14:07:38.378Z,22.56
2018-04-07T14:10:05.907Z,22.40
2018-04-07T14:12:33.520Z,22.69
2018-04-07T14:15:01.074Z,22.92
2018-04-07T14:17:28.602Z,23.04
2018-04-07T14:19:56.174Z,22.90
2018-04-07T14:22:23.702Z,22.51
2018-04-07T14:24:51.607Z,22.43
2018-04-07T14:27:19.163Z,22.62
2018-04-07T14:29:46.698Z,22.26
2018-04-07T14:32:14.270Z,22.35
2018-04-07T14:34:41.816Z,22.58
2018-04-07T14:37:09.421Z,22.72
2018-04-07T14:39:36.971Z,22.77
2018-04-07T14:42:04.521Z,22.54
2018-04-07T14:44:32.159Z,22.35
2018-04-07T14:46:59.721Z,22.71
2018-04-07T14:49:27.269Z,22.65
2018-04-07T14:51:54.832Z,22.84
2018-04-07T14:54:22.390Z,22.73
2018-04-07T14:56:49.976Z,22.51
2018-04-07T14:59:17.533Z,22.49
2018-04-07T15:01:45.067Z,22.42
2018-04-07T15:04:12.997Z,22.35
2018-04-07T15:06:40.544Z,22.22
2018-04-07T15:09:08.084Z,22.27
2018-04-07T15:11:35.666Z,22.32
2018-04-07T15:14:03.264Z,22.37
2018-04-07T15:16:30.834Z,22.24
2018-04-07T15:18:58.367Z,22.09
2018-04-07T15:21:25.969Z,22.21
2018-04-07T15:23:53.506Z,22.40
2018-04-07T15:26:21.057Z,22.57
2018-04-07T15:28:48.642Z,22.52
2018-04-07T15:31:16.183Z,22.32
2018-04-07T15:33:43.748Z,22.28
2018-04-07T15:36:11.303Z,22.31
2018-04-07T15:38:38.905Z,22.15
2018-04-07T15:41:06.449Z,22.22
2018-04-07T15:43:33.992Z,22.01
2018-04-07T15:46:01.596Z,22.19
2018-04-07T15:48:29.137Z,22.06
2018-04-07T15:50:56.713Z,21.97
2018-04-07T15:53:24.274Z,22.28
2018-04-07T15:55:51.810Z,21.97
2018-04-07T15:58:19.374Z,21.94
2018-04-07T16:00:46.966Z,21.95
2018-04-07T16:03:14.503Z,21.99
2018-04-07T16:05:42.085Z,22.02
2018-04-07T16:08:09.623Z,21.91
2018-04-07T16:10:37.192Z,21.86
2018-04-07T16:13:04.748Z,21.93
2018-04-07T16:15:32.334Z,21.83
2018-04-07T16:17:59.939Z,21.94
2018-04-07T16:20:27.484Z,21.76
2018-04-07T16:22:55.019Z,21.48
2018-04-07T16:25:22.612Z,21.78
2018-04-07T16:27:50.147Z,21.70
2018-04-07T16:30:17.718Z,21.47
2018-04-07T16:32:45.295Z,21.35
2018-04-07T16:35:12.977Z,21.36
2018-04-07T16:37:40.542Z,21.22
2018-04-07T16:40:08.113Z,21.28
2018-04-07T16:42:35.675Z,21.21
2018-04-07T16:45:03.259Z,21.29
2018-04-07T16:47:30.814Z,21.37
2018-04-07T16:49:58.371Z,21.30
2018-04-07T16:52:26.000Z,21.23
2018-04-07T16:54:53.543Z,21.16
2018-04-07T16:57:21.124Z,21.23
2018-04-07T16:59:48.682Z,21.26
2018-04-07T17:02:16.237Z,21.05
2018-04-07T17:04:43.810Z,20.97
2018-04-07T17:07:11.374Z,20.91
2018-04-07T17:09:38.995Z,20.66
2018-04-07T17:12:06.540Z,20.51
2018-04-07T17:14:34.144Z,20.43
2018-04-07T17:17:01.697Z,20.22
2018-04-07T17:19:29.235Z,20.05
2018-04-07T17:21:56.841Z,19.91
2018-04-07T17:24:24.397Z,19.80
2018-04-07T17:26:52.340Z,19.76
2018-04-07T17:29:19.987Z,19.60
2018-04-07T17:31:47.552Z,19.37
2018-04-07T17:34:15.116Z,19.28
2018-04-07T17:36:42.675Z,19.15
2018-04-07T17:39:10.260Z,19.02
2018-04-07T17:41:37.833Z,18.86
2018-04-07T17:44:05.388Z,18.76
2018-04-07T17:46:32.961Z,18.60
2018-04-07T17:49:06.101Z,18.46
2018-04-07T17:51:28.158Z,18.17
2018-04-07T17:53:55.705Z,18.20
2018-04-07T17:56:23.281Z,18.03
2018-04-07T17:58:50.828Z,17.77
2018-04-07T18:01:18.880Z,17.61
2018-04-07T18:03:46.416Z,17.46
2018-04-07T18:06:13.968Z,17.24
2018-04-07T18:08:41.553Z,17.05
2018-04-07T18:11:09.106Z,16.98
2018-04-07T18:13:36.708Z,16.77
2018-04-07T18:16:04.255Z,16.60
2018-04-07T18:18:31.786Z,16.38
2018-04-07T18:20:59.339Z,16.23
2018-04-07T18:23:26.914Z,16.14
2018-04-07T18:25:54.472Z,16.11
2018-04-07T18:28:22.015Z,15.98
2018-04-07T18:30:49.623Z,15.82
2018-04-07T18:33:17.181Z,15.92
2018-04-07T18:35:44.725Z,15.86
2018-04-07T18:38:12.324Z,15.56
2018-04-07T18:40:39.890Z,15.44
2018-04-07T18:43:07.450Z,15.20
2018-04-07T18:45:35.025Z,15.11
2018-04-07T18:48:02.558Z,15.48
2018-04-07T18:50:30.155Z,15.46
2018-04-07T18:52:57.765Z,15.63
2018-04-07T18:55:25.302Z,15.64
2018-04-07T18:57:52.895Z,15.34
2018-04-07T19:00:20.430Z,14.91
2018-04-07T19:02:47.980Z,15.16
2018-04-07T19:05:15.556Z,14.99
2018-04-07T19:07:43.099Z,15.05
2018-04-07T19:10:10.700Z,14.73
2018-04-07T19:12:38.261Z,14.63
2018-04-07T19:15:06.256Z,14.40
2018-04-07T19:17:33.926Z,14.36
2018-04-07T19:20:01.497Z,14.77
2018-04-07T19:22:29.091Z,14.84
2018-04-07T19:24:56.867Z,14.40
2018-04-07T19:27:24.481Z,14.35
2018-04-07T19:29:52.198Z,14.12
2018-04-07T19:32:19.737Z,14.11
2018-04-07T19:34:47.353Z,14.12
2018-04-07T19:37:14.903Z,14.16
2018-04-07T19:39:42.591Z,14.25
2018-04-07T19:42:10.276Z,14.29
2018-04-07T19:44:37.954Z,14.09
2018-04-07T19:47:05.538Z,14.80
2018-04-07T19:49:33.596Z,14.22
2018-04-07T19:52:01.163Z,14.32
2018-04-07T19:54:28.715Z,14.45
2018-04-07T19:56:56.327Z,14.12
2018-04-07T19:59:23.905Z,13.82
2018-04-07T20:01:51.467Z,13.72
2018-04-07T20:04:19.155Z,13.56
2018-04-07T20:06:46.690Z,13.45
2018-04-07T20:09:14.270Z,13.78
2018-04-07T20:11:41.831Z,13.56
2018-04-07T20:14:09.441Z,13.36
2018-04-07T20:16:37.013Z,13.32
2018-04-07T20:19:04.568Z,13.31
2018-04-07T20:21:32.200Z,13.41
2018-04-07T20:23:59.947Z,13.46
2018-04-07T20:26:27.600Z,13.21
2018-04-07T20:28:55.297Z,13.27
2018-04-07T20:31:23.009Z,13.15
2018-04-07T20:33:50.552Z,13.10
2018-04-07T20:36:18.100Z,13.01
2018-04-07T20:38:45.682Z,13.00
2018-04-07T20:41:13.352Z,12.98
2018-04-07T20:43:40.931Z,12.89
2018-04-07T20:46:08.512Z,12.86
2018-04-07T20:48:36.498Z,12.85
2018-04-07T20:51:04.113Z,13.24
2018-04-07T20:53:31.681Z,13.25
2018-04-07T20:55:59.270Z,13.22
2018-04-07T20:58:26.810Z,12.99
2018-04-07T21:00:54.478Z,12.90
2018-04-07T21:03:22.086Z,12.76
2018-04-07T21:05:49.715Z,12.59
2018-04-07T21:08:17.299Z,12.47
2018-04-07T21:10:45.051Z,12.47
2018-04-07T21:13:12.591Z,12.38
2018-04-07T21:15:40.159Z,12.30
2018-04-07T21:18:07.708Z,12.26
2018-04-07T21:20:35.307Z,12.28
2018-04-07T21:23:02.859Z,12.33
2018-04-07T21:25:30.395Z,12.30
2018-04-07T21:27:57.964Z,12.34
2018-04-07T21:30:25.894Z,12.34
2018-04-07T21:32:53.446Z,12.68
2018-04-07T21:35:21.005Z,12.70
2018-04-07T21:37:48.601Z,12.67
2018-04-07T21:40:16.146Z,12.81
2018-04-07T21:42:44.065Z,12.77
2018-04-07T21:45:11.607Z,12.58
2018-04-07T21:47:39.161Z,12.48
2018-04-07T21:50:06.746Z,12.84
2018-04-07T21:52:34.329Z,12.99
2018-04-07T21:55:01.909Z,13.01
2018-04-07T21:57:29.545Z,12.95
2018-04-07T21:59:57.152Z,12.82
2018-04-07T22:02:24.693Z,12.51
2018-04-07T22:04:53.256Z,12.61
2018-04-07T22:07:21.229Z,12.74
2018-04-07T22:09:48.775Z,12.70
2018-04-07T22:12:16.337Z,12.61
2018-04-07T22:14:43.918Z,12.50
2018-04-07T22:17:11.487Z,12.56
2018-04-07T22:19:39.383Z,12.74
2018-04-07T22:22:06.930Z,12.95
2018-04-07T22:24:34.492Z,13.20
2018-04-07T22:27:02.080Z,13.48
2018-04-07T22:29:29.639Z,13.47
2018-04-07T22:31:57.224Z,13.32
2018-04-07T22:34:24.786Z,13.28
2018-04-07T22:36:52.360Z,13.25
2018-04-07T22:39:19.929Z,13.24
2018-04-07T22:41:47.632Z,13.13
2018-04-07T22:44:15.191Z,13.13
2018-04-07T22:46:42.741Z,13.04
2018-04-07T22:49:10.298Z,12.66
2018-04-07T22:51:38.260Z,12.36
2018-04-07T22:54:05.816Z,12.14
2018-04-07T22:56:33.367Z,11.95
2018-04-07T22:59:00.944Z,12.23
2018-04-07T23:01:28.475Z,12.75
2018-04-07T23:03:56.106Z,12.51
2018-04-07T23:06:23.652Z,12.52
2018-04-07T23:08:51.201Z,12.36
2018-04-07T23:11:18.805Z,11.98
2018-04-07T23:13:46.358Z,11.96
2018-04-07T23:16:13.896Z,12.34
2018-04-07T23:18:41.482Z,12.47
2018-04-07T23:21:09.043Z,12.31
2018-04-07T23:23:36.645Z,12.40
2018-04-07T23:26:04.210Z,12.14
2018-04-07T23:28:31.766Z,11.87
2018-04-07T23:30:59.370Z,11.72
2018-04-07T23:33:26.942Z,11.73
2018-04-07T23:35:54.489Z,11.76
2018-04-07T23:38:22.071Z,11.70
2018-04-07T23:40:49.623Z,11.60
2018-04-07T23:43:17.242Z,11.50
2018-04-07T23:45:44.799Z,11.48
2018-04-07T23:48:12.355Z,11.45
2018-04-07T23:50:39.969Z,11.36
2018-04-07T23:53:07.516Z,11.36
2018-04-07T23:55:35.054Z,11.28
2018-04-07T23:58:03.036Z,11.43
